Terminal Aerodrome Forecast
Issued by NWS

Home | Current Version | Previous Version | Text Only | Print | Product List | Glossary On
Versions: 1 2 3 4 5 6 7 8 9 10 11 12 13 14 15 16 17 18 19 20 21 22 23 24
000
FTUS45 KLKN 222324
TAFEKO
TAF
KEKO 222324Z 2300/2324 VRB06KT P6SM SCT110
     FM230200 03015G25KT P6SM BKN120
     FM230800 08005KT P6SM FEW120 SCT250
     FM232100 VRB06G16KT P6SM VCTS BKN120CB=

USA.gov is the U.S. government's official web portal to all federal, state and local government web resources and services.